sensor_id;sensor_type;location;lat;lon;timestamp;pressure;altitude;pressure_sealevel;temperature;humidity
22104;BME280;11218;48.886;9.426;2023-03-31T00:00:54;97410.19;;;12.01;69.25
22104;BME280;11218;48.886;9.426;2023-03-31T00:03:26;97402.09;;;12.01;69.06
22104;BME280;11218;48.886;9.426;2023-03-31T00:05:55;97395.34;;;11.98;68.47
22104;BME280;11218;48.886;9.426;2023-03-31T00:08:25;97388.34;;;11.97;68.58
22104;BME280;11218;48.886;9.426;2023-03-31T00:10:57;97380.81;;;11.94;68.65
22104;BME280;11218;48.886;9.426;2023-03-31T00:13:28;97379.44;;;11.97;68.72
22104;BME280;11218;48.886;9.426;2023-03-31T00:15:57;97374.06;;;11.92;69.41
22104;BME280;11218;48.886;9.426;2023-03-31T00:18:26;97364.38;;;11.91;69.29
22104;BME280;11218;48.886;9.426;2023-03-31T00:21:04;97360.84;;;11.90;68.95
22104;BME280;11218;48.886;9.426;2023-03-31T00:23:34;97358.44;;;11.89;68.93
22104;BME280;11218;48.886;9.426;2023-03-31T00:26:02;97360.91;;;11.85;69.73
22104;BME280;11218;48.886;9.426;2023-03-31T00:28:32;97347.97;;;11.82;69.70
22104;BME280;11218;48.886;9.426;2023-03-31T00:31:00;97348.22;;;11.75;70.56
22104;BME280;11218;48.886;9.426;2023-03-31T00:33:29;97344.47;;;11.71;70.21
22104;BME280;11218;48.886;9.426;2023-03-31T00:35:57;97341.22;;;11.69;70.66
22104;BME280;11218;48.886;9.426;2023-03-31T00:38:32;97335.56;;;11.71;70.53
22104;BME280;11218;48.886;9.426;2023-03-31T00:41:01;97326.41;;;11.67;71.01
22104;BME280;11218;48.886;9.426;2023-03-31T00:43:34;97332.34;;;11.64;71.03
22104;BME280;11218;48.886;9.426;2023-03-31T00:46:06;97326.16;;;11.63;71.06
22104;BME280;11218;48.886;9.426;2023-03-31T00:48:45;97321.84;;;11.62;70.77
22104;BME280;11218;48.886;9.426;2023-03-31T00:51:14;97317.00;;;11.64;70.87
22104;BME280;11218;48.886;9.426;2023-03-31T00:53:45;97312.13;;;11.66;70.24
22104;BME280;11218;48.886;9.426;2023-03-31T00:56:17;97307.28;;;11.68;70.40
22104;BME280;11218;48.886;9.426;2023-03-31T00:58:46;97301.06;;;11.68;70.26
22104;BME280;11218;48.886;9.426;2023-03-31T01:01:17;97299.97;;;11.74;70.55
22104;BME280;11218;48.886;9.426;2023-03-31T01:03:51;97294.06;;;11.77;70.45
22104;BME280;11218;48.886;9.426;2023-03-31T01:06:19;97301.06;;;11.78;70.40
22104;BME280;11218;48.886;9.426;2023-03-31T01:08:51;97301.03;;;11.83;69.67
22104;BME280;11218;48.886;9.426;2023-03-31T01:11:23;97294.03;;;11.87;69.31
22104;BME280;11218;48.886;9.426;2023-03-31T01:13:55;97291.81;;;11.89;69.36
22104;BME280;11218;48.886;9.426;2023-03-31T01:16:23;97296.94;;;11.91;69.49
22104;BME280;11218;48.886;9.426;2023-03-31T01:18:51;97296.91;;;12.01;68.95
22104;BME280;11218;48.886;9.426;2023-03-31T01:24:45;97277.97;;;12.11;68.28
22104;BME280;11218;48.886;9.426;2023-03-31T01:27:45;97277.66;;;12.17;68.02
22104;BME280;11218;48.886;9.426;2023-03-31T01:30:50;97283.56;;;12.25;67.41
22104;BME280;11218;48.886;9.426;2023-03-31T01:36:54;97263.31;;;12.27;67.45
22104;BME280;11218;48.886;9.426;2023-03-31T01:39:54;97253.81;;;12.35;67.12
22104;BME280;11218;48.886;9.426;2023-03-31T01:42:31;97244.38;;;12.32;67.37
22104;BME280;11218;48.886;9.426;2023-03-31T01:45:06;97234.66;;;12.31;67.08
22104;BME280;11218;48.886;9.426;2023-03-31T01:47:44;97228.47;;;12.31;67.13
22104;BME280;11218;48.886;9.426;2023-03-31T01:50:20;97234.94;;;12.30;66.84
22104;BME280;11218;48.886;9.426;2023-03-31T01:52:56;97246.56;;;12.30;66.84
22104;BME280;11218;48.886;9.426;2023-03-31T01:55:31;97247.91;;;12.28;66.65
22104;BME280;11218;48.886;9.426;2023-03-31T01:58:05;97236.56;;;12.31;66.41
22104;BME280;11218;48.886;9.426;2023-03-31T02:00:39;97247.63;;;12.29;66.89
22104;BME280;11218;48.886;9.426;2023-03-31T02:03:10;97242.81;;;12.26;66.50
22104;BME280;11218;48.886;9.426;2023-03-31T02:05:46;97251.69;;;12.27;66.38
22104;BME280;11218;48.886;9.426;2023-03-31T02:08:19;97248.44;;;12.30;66.49
22104;BME280;11218;48.886;9.426;2023-03-31T02:10:52;97251.91;;;12.35;66.77
22104;BME280;11218;48.886;9.426;2023-03-31T02:13:22;97250.06;;;12.31;66.55
22104;BME280;11218;48.886;9.426;2023-03-31T02:15:55;97253.56;;;12.31;66.82
22104;BME280;11218;48.886;9.426;2023-03-31T02:18:26;97248.41;;;12.35;67.12
22104;BME280;11218;48.886;9.426;2023-03-31T02:20:57;97249.50;;;12.34;67.38
22104;BME280;11218;48.886;9.426;2023-03-31T02:23:28;97243.28;;;12.33;67.27
22104;BME280;11218;48.886;9.426;2023-03-31T02:26:01;97243.28;;;12.33;67.04
22104;BME280;11218;48.886;9.426;2023-03-31T02:28:32;97237.66;;;12.30;66.58
22104;BME280;11218;48.886;9.426;2023-03-31T02:31:16;97229.31;;;12.26;66.69
22104;BME280;11218;48.886;9.426;2023-03-31T02:33:47;97216.06;;;12.30;66.07
22104;BME280;11218;48.886;9.426;2023-03-31T02:36:15;97219.88;;;12.24;66.73
22104;BME280;11218;48.886;9.426;2023-03-31T02:38:48;97212.59;;;12.24;66.28
22104;BME280;11218;48.886;9.426;2023-03-31T02:41:19;97210.47;;;12.21;67.36
22104;BME280;11218;48.886;9.426;2023-03-31T02:43:47;97204.81;;;12.17;66.56
22104;BME280;11218;48.886;9.426;2023-03-31T02:46:15;97205.91;;;12.16;67.12
22104;BME280;11218;48.886;9.426;2023-03-31T02:48:45;97196.47;;;12.14;67.58
22104;BME280;11218;48.886;9.426;2023-03-31T02:54:43;97174.94;;;12.09;68.93
22104;BME280;11218;48.886;9.426;2023-03-31T02:57:25;97169.28;;;12.05;69.64
22104;BME280;11218;48.886;9.426;2023-03-31T03:00:07;97145.81;;;12.06;70.05
22104;BME280;11218;48.886;9.426;2023-03-31T03:02:45;97138.06;;;11.94;70.47
22104;BME280;11218;48.886;9.426;2023-03-31T03:05:27;97132.69;;;11.94;71.59
22104;BME280;11218;48.886;9.426;2023-03-31T03:08:07;97124.69;;;11.84;71.91
22104;BME280;11218;48.886;9.426;2023-03-31T03:10:45;97117.69;;;11.83;71.68
22104;BME280;11218;48.886;9.426;2023-03-31T03:13:22;97108.84;;;11.77;72.34
22104;BME280;11218;48.886;9.426;2023-03-31T03:15:58;97102.88;;;11.75;71.85
22104;BME280;11218;48.886;9.426;2023-03-31T03:18:28;97095.34;;;11.72;72.09
22104;BME280;11218;48.886;9.426;2023-03-31T03:20:56;97076.72;;;11.76;71.37
22104;BME280;11218;48.886;9.426;2023-03-31T03:23:24;97063.28;;;11.71;71.37
22104;BME280;11218;48.886;9.426;2023-03-31T03:25:53;97053.59;;;11.70;71.29
22104;BME280;11218;48.886;9.426;2023-03-31T03:28:23;97054.09;;;11.72;71.51
22104;BME280;11218;48.886;9.426;2023-03-31T03:30:51;97040.16;;;11.65;72.24
22104;BME280;11218;48.886;9.426;2023-03-31T03:33:20;97033.44;;;11.62;72.12
22104;BME280;11218;48.886;9.426;2023-03-31T03:35:50;97016.19;;;11.58;72.74
22104;BME280;11218;48.886;9.426;2023-03-31T03:38:19;97018.38;;;11.56;72.73
22104;BME280;11218;48.886;9.426;2023-03-31T03:40:51;97007.63;;;11.51;72.86
22104;BME280;11218;48.886;9.426;2023-03-31T03:43:19;97002.00;;;11.47;73.37
22104;BME280;11218;48.886;9.426;2023-03-31T03:45:50;97014.16;;;11.45;73.35
22104;BME280;11218;48.886;9.426;2023-03-31T03:48:18;97000.94;;;11.43;73.03
22104;BME280;11218;48.886;9.426;2023-03-31T03:50:47;96992.63;;;11.40;73.05
22104;BME280;11218;48.886;9.426;2023-03-31T03:53:15;96992.91;;;11.38;73.27
22104;BME280;11218;48.886;9.426;2023-03-31T03:55:43;96977.53;;;11.39;73.71
22104;BME280;11218;48.886;9.426;2023-03-31T03:58:14;96982.13;;;11.38;73.86
22104;BME280;11218;48.886;9.426;2023-03-31T04:00:42;96991.56;;;11.36;73.65
22104;BME280;11218;48.886;9.426;2023-03-31T04:03:12;96981.88;;;11.35;73.75
22104;BME280;11218;48.886;9.426;2023-03-31T04:05:41;96974.88;;;11.34;73.78
22104;BME280;11218;48.886;9.426;2023-03-31T04:08:09;96975.44;;;11.31;73.78
22104;BME280;11218;48.886;9.426;2023-03-31T04:10:37;96950.41;;;11.30;73.83
22104;BME280;11218;48.886;9.426;2023-03-31T04:13:05;96943.69;;;11.28;74.38
22104;BME280;11218;48.886;9.426;2023-03-31T04:15:33;96940.19;;;11.27;74.44
22104;BME280;11218;48.886;9.426;2023-03-31T04:18:01;96938.59;;;11.21;74.26
22104;BME280;11218;48.886;9.426;2023-03-31T04:20:31;96921.38;;;11.22;74.16
22104;BME280;11218;48.886;9.426;2023-03-31T04:23:00;96918.09;;;11.25;73.70
22104;BME280;11218;48.886;9.426;2023-03-31T04:25:28;96908.47;;;11.19;74.31
22104;BME280;11218;48.886;9.426;2023-03-31T04:27:56;96903.13;;;11.14;74.42
22104;BME280;11218;48.886;9.426;2023-03-31T04:30:26;96893.22;;;11.09;74.50
22104;BME280;11218;48.886;9.426;2023-03-31T04:32:58;96889.72;;;11.09;74.60
22104;BME280;11218;48.886;9.426;2023-03-31T04:35:28;96876.81;;;11.06;74.70
22104;BME280;11218;48.886;9.426;2023-03-31T04:38:17;96882.22;;;11.01;75.07
22104;BME280;11218;48.886;9.426;2023-03-31T04:40:47;96865.59;;;10.94;74.83
22104;BME280;11218;48.886;9.426;2023-03-31T04:43:16;96870.41;;;10.97;75.20
22104;BME280;11218;48.886;9.426;2023-03-31T04:45:44;96881.94;;;11.02;75.07
22104;BME280;11218;48.886;9.426;2023-03-31T04:48:12;96886.53;;;11.02;75.49
22104;BME280;11218;48.886;9.426;2023-03-31T04:50:41;96880.63;;;11.00;75.17
22104;BME280;11218;48.886;9.426;2023-03-31T04:53:09;96875.47;;;11.03;75.25
22104;BME280;11218;48.886;9.426;2023-03-31T04:55:38;96860.94;;;11.04;75.44
22104;BME280;11218;48.886;9.426;2023-03-31T04:58:06;96849.88;;;11.06;75.69
22104;BME280;11218;48.886;9.426;2023-03-31T05:00:34;96833.59;;;11.16;74.71
22104;BME280;11218;48.886;9.426;2023-03-31T05:03:02;96828.81;;;11.13;74.77
22104;BME280;11218;48.886;9.426;2023-03-31T05:05:31;96833.59;;;11.16;74.77
22104;BME280;11218;48.886;9.426;2023-03-31T05:07:59;96821.53;;;11.13;75.18
22104;BME280;11218;48.886;9.426;2023-03-31T05:10:28;96827.38;;;11.20;74.78
22104;BME280;11218;48.886;9.426;2023-03-31T05:12:57;96839.22;;;11.19;74.96
22104;BME280;11218;48.886;9.426;2023-03-31T05:15:28;96842.69;;;11.25;74.72
22104;BME280;11218;48.886;9.426;2023-03-31T05:17:57;96840.31;;;11.18;75.30
22104;BME280;11218;48.886;9.426;2023-03-31T05:20:25;96844.84;;;11.23;74.68
22104;BME280;11218;48.886;9.426;2023-03-31T05:22:53;96851.63;;;11.20;74.72
22104;BME280;11218;48.886;9.426;2023-03-31T05:25:21;96862.94;;;11.17;75.09
22104;BME280;11218;48.886;9.426;2023-03-31T05:27:49;96864.28;;;11.20;75.60
22104;BME280;11218;48.886;9.426;2023-03-31T05:30:19;96870.72;;;11.24;76.06
22104;BME280;11218;48.886;9.426;2023-03-31T05:32:47;96881.25;;;11.20;76.63
22104;BME280;11218;48.886;9.426;2023-03-31T05:35:15;96892.84;;;11.16;77.27
22104;BME280;11218;48.886;9.426;2023-03-31T05:37:44;96894.75;;;11.15;78.19
22104;BME280;11218;48.886;9.426;2023-03-31T05:40:12;96907.75;;;11.08;79.42
22104;BME280;11218;48.886;9.426;2023-03-31T05:42:41;96916.13;;;11.07;79.76
22104;BME280;11218;48.886;9.426;2023-03-31T05:45:12;96912.09;;;11.04;80.72
22104;BME280;11218;48.886;9.426;2023-03-31T05:47:42;96908.06;;;11.02;80.79
22104;BME280;11218;48.886;9.426;2023-03-31T05:50:10;96899.47;;;11.00;81.82
22104;BME280;11218;48.886;9.426;2023-03-31T05:52:40;96900.03;;;10.97;82.36
22104;BME280;11218;48.886;9.426;2023-03-31T05:55:09;96887.13;;;10.94;82.50
22104;BME280;11218;48.886;9.426;2023-03-31T05:57:37;96889.84;;;10.89;83.37
22104;BME280;11218;48.886;9.426;2023-03-31T06:00:07;96883.72;;;10.83;83.53
22104;BME280;11218;48.886;9.426;2023-03-31T06:02:36;96878.34;;;10.78;84.31
22104;BME280;11218;48.886;9.426;2023-03-31T06:05:07;96865.75;;;10.73;84.59
22104;BME280;11218;48.886;9.426;2023-03-31T06:07:35;96852.88;;;10.65;85.48
22104;BME280;11218;48.886;9.426;2023-03-31T06:10:04;96842.13;;;10.60;85.73
22104;BME280;11218;48.886;9.426;2023-03-31T06:12:33;96832.75;;;10.58;85.96
22104;BME280;11218;48.886;9.426;2023-03-31T06:15:02;96817.16;;;10.54;86.26
22104;BME280;11218;48.886;9.426;2023-03-31T06:17:30;96815.78;;;10.57;86.90
22104;BME280;11218;48.886;9.426;2023-03-31T06:19:58;96805.88;;;10.52;87.07
22104;BME280;11218;48.886;9.426;2023-03-31T06:22:28;96800.81;;;10.46;87.70
22104;BME280;11218;48.886;9.426;2023-03-31T06:24:57;96785.22;;;10.43;87.75
22104;BME280;11218;48.886;9.426;2023-03-31T06:27:25;96783.88;;;10.40;88.17
22104;BME280;11218;48.886;9.426;2023-03-31T06:29:53;96788.13;;;10.51;87.78
22104;BME280;11218;48.886;9.426;2023-03-31T06:32:21;96791.69;;;10.42;88.08
22104;BME280;11218;48.886;9.426;2023-03-31T06:35:04;96781.50;;;10.39;88.12
22104;BME280;11218;48.886;9.426;2023-03-31T06:37:33;96780.44;;;10.40;88.66
22104;BME280;11218;48.886;9.426;2023-03-31T06:40:01;96775.81;;;10.40;88.79
22104;BME280;11218;48.886;9.426;2023-03-31T06:42:30;96778.81;;;10.39;89.18
22104;BME280;11218;48.886;9.426;2023-03-31T06:44:58;96769.16;;;10.38;89.44
22104;BME280;11218;48.886;9.426;2023-03-31T06:47:26;96774.81;;;10.36;89.66
22104;BME280;11218;48.886;9.426;2023-03-31T06:49:54;96785.00;;;10.39;89.21
22104;BME280;11218;48.886;9.426;2023-03-31T06:52:22;96781.50;;;10.39;89.55
22104;BME280;11218;48.886;9.426;2023-03-31T06:54:51;96788.25;;;10.36;89.87
22104;BME280;11218;48.886;9.426;2023-03-31T06:57:21;96790.66;;;10.38;89.87
22104;BME280;11218;48.886;9.426;2023-03-31T06:59:49;96788.81;;;10.33;90.43
22104;BME280;11218;48.886;9.426;2023-03-31T07:02:17;96808.44;;;10.34;90.63
22104;BME280;11218;48.886;9.426;2023-03-31T07:04:46;96802.00;;;10.30;91.10
22104;BME280;11218;48.886;9.426;2023-03-31T07:07:14;96807.09;;;10.31;91.15
22104;BME280;11218;48.886;9.426;2023-03-31T07:09:42;96821.09;;;10.33;91.36
22104;BME280;11218;48.886;9.426;2023-03-31T07:12:12;96822.41;;;10.36;91.74
22104;BME280;11218;48.886;9.426;2023-03-31T07:14:41;96845.75;;;10.40;91.93
22104;BME280;11218;48.886;9.426;2023-03-31T07:17:09;96839.34;;;10.36;92.34
22104;BME280;11218;48.886;9.426;2023-03-31T07:19:37;96852.53;;;10.38;92.92
22104;BME280;11218;48.886;9.426;2023-03-31T07:22:08;96843.66;;;10.37;93.31
22104;BME280;11218;48.886;9.426;2023-03-31T07:24:36;96832.53;;;10.49;91.65
22104;BME280;11218;48.886;9.426;2023-03-31T07:27:04;96817.13;;;10.60;91.89
22104;BME280;11218;48.886;9.426;2023-03-31T07:29:34;96749.38;;;10.52;91.80
22104;BME280;11218;48.886;9.426;2023-03-31T07:32:02;96734.50;;;10.60;91.43
22104;BME280;11218;48.886;9.426;2023-03-31T07:34:30;96737.72;;;10.62;91.48
22104;BME280;11218;48.886;9.426;2023-03-31T07:37:01;96705.94;;;10.64;91.28
22104;BME280;11218;48.886;9.426;2023-03-31T07:39:29;96754.94;;;10.61;91.72
22104;BME280;11218;48.886;9.426;2023-03-31T07:41:57;96747.41;;;10.63;91.36
22104;BME280;11218;48.886;9.426;2023-03-31T07:44:26;96763.78;;;10.67;90.49
22104;BME280;11218;48.886;9.426;2023-03-31T07:46:56;96776.44;;;10.66;89.83
22104;BME280;11218;48.886;9.426;2023-03-31T07:49:26;96772.59;;;10.77;89.04
22104;BME280;11218;48.886;9.426;2023-03-31T07:51:55;96774.91;;;10.89;88.95
22104;BME280;11218;48.886;9.426;2023-03-31T07:54:23;96767.72;;;11.32;88.43
22104;BME280;11218;48.886;9.426;2023-03-31T07:56:51;96756.66;;;11.58;86.45
22104;BME280;11218;48.886;9.426;2023-03-31T07:59:20;96760.53;;;11.94;84.33
22104;BME280;11218;48.886;9.426;2023-03-31T08:01:48;96749.03;;;12.07;83.82
22104;BME280;11218;48.886;9.426;2023-03-31T08:04:17;96748.50;;;12.05;82.72
22104;BME280;11218;48.886;9.426;2023-03-31T08:06:46;96744.28;;;11.99;82.38
22104;BME280;11218;48.886;9.426;2023-03-31T08:09:14;96752.16;;;11.96;81.84
22104;BME280;11218;48.886;9.426;2023-03-31T08:11:43;96758.81;;;11.84;82.60
22104;BME280;11218;48.886;9.426;2023-03-31T08:14:13;96751.28;;;11.81;81.00
22104;BME280;11218;48.886;9.426;2023-03-31T08:16:50;96742.03;;;11.88;80.46
22104;BME280;11218;48.886;9.426;2023-03-31T08:19:22;96746.56;;;12.11;80.17
22104;BME280;11218;48.886;9.426;2023-03-31T08:21:50;96745.75;;;12.48;78.35
22104;BME280;11218;48.886;9.426;2023-03-31T08:24:19;96741.22;;;12.76;77.25
22104;BME280;11218;48.886;9.426;2023-03-31T08:26:47;96731.56;;;13.02;74.96
22104;BME280;11218;48.886;9.426;2023-03-31T08:29:18;96741.75;;;13.24;74.20
22104;BME280;11218;48.886;9.426;2023-03-31T08:31:46;96732.22;;;13.40;73.60
22104;BME280;11218;48.886;9.426;2023-03-31T08:34:13;96742.34;;;13.62;73.87
22104;BME280;11218;48.886;9.426;2023-03-31T08:36:43;96723.28;;;13.81;71.21
22104;BME280;11218;48.886;9.426;2023-03-31T08:39:11;96725.19;;;13.94;71.48
22104;BME280;11218;48.886;9.426;2023-03-31T08:41:46;96735.03;;;14.12;71.48
22104;BME280;11218;48.886;9.426;2023-03-31T08:44:20;96720.72;;;14.34;71.61
22104;BME280;11218;48.886;9.426;2023-03-31T08:46:53;96719.09;;;14.47;70.09
22104;BME280;11218;48.886;9.426;2023-03-31T08:49:23;96716.16;;;14.57;69.07
22104;BME280;11218;48.886;9.426;2023-03-31T08:51:57;96707.16;;;14.70;69.50
22104;BME280;11218;48.886;9.426;2023-03-31T08:54:31;96710.25;;;14.77;69.00
22104;BME280;11218;48.886;9.426;2023-03-31T08:57:00;96715.69;;;14.86;67.12
22104;BME280;11218;48.886;9.426;2023-03-31T08:59:32;96717.94;;;14.93;67.26
22104;BME280;11218;48.886;9.426;2023-03-31T09:02:09;96700.94;;;15.01;65.96
22104;BME280;11218;48.886;9.426;2023-03-31T09:04:57;96715.34;;;15.10;65.85
22104;BME280;11218;48.886;9.426;2023-03-31T09:07:35;96697.03;;;15.16;66.13
22104;BME280;11218;48.886;9.426;2023-03-31T09:10:18;96701.50;;;15.20;64.38
22104;BME280;11218;48.886;9.426;2023-03-31T09:12:54;96698.53;;;15.30;63.39
22104;BME280;11218;48.886;9.426;2023-03-31T09:15:27;96701.75;;;15.41;64.58
22104;BME280;11218;48.886;9.426;2023-03-31T09:17:57;96676.28;;;15.51;64.60
22104;BME280;11218;48.886;9.426;2023-03-31T09:20:29;96675.34;;;15.64;64.88
22104;BME280;11218;48.886;9.426;2023-03-31T09:23:04;96674.44;;;15.86;63.44
22104;BME280;11218;48.886;9.426;2023-03-31T09:25:37;96670.44;;;15.74;63.31
22104;BME280;11218;48.886;9.426;2023-03-31T09:28:13;96661.03;;;15.89;62.89
22104;BME280;11218;48.886;9.426;2023-03-31T09:30:46;96677.31;;;15.98;64.04
22104;BME280;11218;48.886;9.426;2023-03-31T09:33:17;96661.03;;;15.98;63.64
22104;BME280;11218;48.886;9.426;2023-03-31T09:35:45;96669.03;;;15.94;63.27
22104;BME280;11218;48.886;9.426;2023-03-31T09:38:19;96656.38;;;15.81;59.91
22104;BME280;11218;48.886;9.426;2023-03-31T09:40:47;96655.56;;;15.72;60.79
22104;BME280;11218;48.886;9.426;2023-03-31T09:43:21;96672.31;;;15.65;59.71
22104;BME280;11218;48.886;9.426;2023-03-31T09:45:49;96676.78;;;15.61;57.90
22104;BME280;11218;48.886;9.426;2023-03-31T09:48:36;96672.94;;;15.62;56.58
22104;BME280;11218;48.886;9.426;2023-03-31T09:51:07;96699.25;;;15.53;56.42
22104;BME280;11218;48.886;9.426;2023-03-31T09:53:47;96681.53;;;15.56;54.60
22104;BME280;11218;48.886;9.426;2023-03-31T09:56:31;96692.13;;;15.57;54.75
22104;BME280;11218;48.886;9.426;2023-03-31T09:59:01;96674.19;;;15.48;55.82
22104;BME280;11218;48.886;9.426;2023-03-31T10:01:29;96667.63;;;15.40;54.85
22104;BME280;11218;48.886;9.426;2023-03-31T10:03:58;96681.22;;;15.49;53.79
22104;BME280;11218;48.886;9.426;2023-03-31T10:06:40;96664.97;;;15.66;52.16
22104;BME280;11218;48.886;9.426;2023-03-31T10:09:10;96663.72;;;15.81;52.26
22104;BME280;11218;48.886;9.426;2023-03-31T10:11:53;96650.03;;;16.03;52.86
22104;BME280;11218;48.886;9.426;2023-03-31T10:15:17;96642.16;;;16.36;51.48
22104;BME280;11218;48.886;9.426;2023-03-31T10:17:57;96649.97;;;16.37;50.20
22104;BME280;11218;48.886;9.426;2023-03-31T10:20:51;96642.53;;;16.26;51.29
22104;BME280;11218;48.886;9.426;2023-03-31T10:23:24;96640.75;;;16.30;49.95
22104;BME280;11218;48.886;9.426;2023-03-31T10:25:55;96630.00;;;16.42;50.70
22104;BME280;11218;48.886;9.426;2023-03-31T10:28:24;96645.19;;;16.52;50.25
22104;BME280;11218;48.886;9.426;2023-03-31T10:30:54;96641.81;;;16.55;49.58
22104;BME280;11218;48.886;9.426;2023-03-31T10:33:25;96636.84;;;16.57;50.02
22104;BME280;11218;48.886;9.426;2023-03-31T10:35:55;96629.34;;;16.62;48.98
22104;BME280;11218;48.886;9.426;2023-03-31T10:38:28;96621.34;;;16.74;49.65
22104;BME280;11218;48.886;9.426;2023-03-31T10:40:59;96610.34;;;16.54;50.02
22104;BME280;11218;48.886;9.426;2023-03-31T10:43:29;96646.63;;;16.40;51.01
22104;BME280;11218;48.886;9.426;2023-03-31T10:46:02;96614.00;;;16.58;50.86
22104;BME280;11218;48.886;9.426;2023-03-31T10:48:32;96599.78;;;16.69;49.68
22104;BME280;11218;48.886;9.426;2023-03-31T10:51:04;96612.09;;;16.67;49.62
22104;BME280;11218;48.886;9.426;2023-03-31T10:53:39;96568.75;;;16.70;49.38
22104;BME280;11218;48.886;9.426;2023-03-31T10:56:17;96591.63;;;16.69;48.39
22104;BME280;11218;48.886;9.426;2023-03-31T10:58:58;96581.25;;;16.54;47.65
22104;BME280;11218;48.886;9.426;2023-03-31T11:01:42;96580.44;;;16.62;49.43
22104;BME280;11218;48.886;9.426;2023-03-31T11:04:32;96589.56;;;16.58;49.55
22104;BME280;11218;48.886;9.426;2023-03-31T11:07:11;96593.28;;;16.36;50.46
22104;BME280;11218;48.886;9.426;2023-03-31T11:09:51;96594.94;;;16.11;50.59
22104;BME280;11218;48.886;9.426;2023-03-31T11:12:33;96585.19;;;15.93;49.98
22104;BME280;11218;48.886;9.426;2023-03-31T11:15:13;96581.84;;;15.87;50.92
22104;BME280;11218;48.886;9.426;2023-03-31T11:17:57;96565.72;;;15.82;50.81
22104;BME280;11218;48.886;9.426;2023-03-31T11:20:36;96561.09;;;15.74;51.99
22104;BME280;11218;48.886;9.426;2023-03-31T11:23:15;96564.44;;;15.71;49.93
22104;BME280;11218;48.886;9.426;2023-03-31T11:25:51;96540.03;;;15.62;50.51
22104;BME280;11218;48.886;9.426;2023-03-31T11:28:51;96575.59;;;15.52;50.52
22104;BME280;11218;48.886;9.426;2023-03-31T11:31:32;96593.94;;;15.38;52.44
22104;BME280;11218;48.886;9.426;2023-03-31T11:34:18;96643.84;;;14.97;59.89
22104;BME280;11218;48.886;9.426;2023-03-31T11:37:13;96706.88;;;14.36;65.63
22104;BME280;11218;48.886;9.426;2023-03-31T11:39:53;96752.16;;;13.44;68.89
22104;BME280;11218;48.886;9.426;2023-03-31T11:42:28;96739.91;;;12.73;71.35
22104;BME280;11218;48.886;9.426;2023-03-31T11:45:10;96737.28;;;12.17;72.55
22104;BME280;11218;48.886;9.426;2023-03-31T11:47:48;96726.28;;;11.95;74.00
22104;BME280;11218;48.886;9.426;2023-03-31T11:50:25;96730.09;;;11.70;74.70
22104;BME280;11218;48.886;9.426;2023-03-31T11:53:01;96727.25;;;11.61;75.42
22104;BME280;11218;48.886;9.426;2023-03-31T11:55:33;96725.19;;;11.53;76.44
22104;BME280;11218;48.886;9.426;2023-03-31T11:58:05;96733.84;;;11.50;76.79
22104;BME280;11218;48.886;9.426;2023-03-31T12:04:36;96718.88;;;11.63;76.21
22104;BME280;11218;48.886;9.426;2023-03-31T12:07:19;96708.91;;;11.63;74.71
22104;BME280;11218;48.886;9.426;2023-03-31T12:09:53;96714.81;;;11.65;74.77
22104;BME280;11218;48.886;9.426;2023-03-31T12:12:25;96717.44;;;11.70;74.94
22104;BME280;11218;48.886;9.426;2023-03-31T12:15:01;96706.31;;;11.77;75.53
22104;BME280;11218;48.886;9.426;2023-03-31T12:17:31;96710.03;;;11.81;74.34
22104;BME280;11218;48.886;9.426;2023-03-31T12:20:05;96711.19;;;11.94;72.64
22104;BME280;11218;48.886;9.426;2023-03-31T12:22:42;96695.31;;;12.11;71.92
22104;BME280;11218;48.886;9.426;2023-03-31T12:25:12;96695.78;;;12.32;70.88
22104;BME280;11218;48.886;9.426;2023-03-31T12:27:42;96694.09;;;12.68;69.89
22104;BME280;11218;48.886;9.426;2023-03-31T12:30:26;96688.47;;;13.11;70.86
22104;BME280;11218;48.886;9.426;2023-03-31T12:33:02;96665.72;;;13.53;69.45
22104;BME280;11218;48.886;9.426;2023-03-31T12:35:42;96667.41;;;13.76;67.06
22104;BME280;11218;48.886;9.426;2023-03-31T12:38:24;96669.28;;;13.90;65.69
22104;BME280;11218;48.886;9.426;2023-03-31T12:41:02;96652.13;;;13.94;64.95
22104;BME280;11218;48.886;9.426;2023-03-31T12:44:01;96646.78;;;14.03;65.25
22104;BME280;11218;48.886;9.426;2023-03-31T12:46:56;96626.31;;;14.10;65.03
22104;BME280;11218;48.886;9.426;2023-03-31T12:49:40;96625.31;;;14.29;63.11
22104;BME280;11218;48.886;9.426;2023-03-31T12:52:19;96623.34;;;14.65;61.97
22104;BME280;11218;48.886;9.426;2023-03-31T12:57:50;96602.41;;;14.97;59.58
22104;BME280;11218;48.886;9.426;2023-03-31T13:00:21;96605.28;;;15.00;59.70
22104;BME280;11218;48.886;9.426;2023-03-31T13:05:59;96598.56;;;14.81;58.49
22104;BME280;11218;48.886;9.426;2023-03-31T13:08:53;96592.03;;;14.82;59.45
22104;BME280;11218;48.886;9.426;2023-03-31T13:11:36;96598.72;;;14.93;58.96
22104;BME280;11218;48.886;9.426;2023-03-31T13:14:12;96585.66;;;14.95;57.75
22104;BME280;11218;48.886;9.426;2023-03-31T13:16:42;96577.69;;;14.90;57.77
22104;BME280;11218;48.886;9.426;2023-03-31T13:19:12;96570.84;;;14.84;57.63
22104;BME280;11218;48.886;9.426;2023-03-31T13:21:57;96567.13;;;14.71;57.22
22104;BME280;11218;48.886;9.426;2023-03-31T13:24:28;96564.50;;;14.57;57.75
22104;BME280;11218;48.886;9.426;2023-03-31T13:26:58;96582.44;;;14.44;58.74
22104;BME280;11218;48.886;9.426;2023-03-31T13:29:38;96583.59;;;14.30;57.63
22104;BME280;11218;48.886;9.426;2023-03-31T13:32:18;96578.06;;;14.12;60.14
22104;BME280;11218;48.886;9.426;2023-03-31T13:34:51;96585.66;;;14.02;63.00
22104;BME280;11218;48.886;9.426;2023-03-31T13:37:35;96599.25;;;13.88;62.15
22104;BME280;11218;48.886;9.426;2023-03-31T13:40:29;96596.09;;;13.72;61.56
22104;BME280;11218;48.886;9.426;2023-03-31T13:43:10;96601.97;;;13.52;63.32
22104;BME280;11218;48.886;9.426;2023-03-31T13:45:49;96603.47;;;13.44;62.47
22104;BME280;11218;48.886;9.426;2023-03-31T13:48:29;96601.56;;;13.45;63.64
22104;BME280;11218;48.886;9.426;2023-03-31T13:51:19;96602.38;;;13.45;63.29